Latest Weather Observations for Onslow Airport

IDW60801

Issued at 5:33 am WST Wednesday 7 December 2016 (issued every 30 minutes, with the page automatically refreshed every 10 minutes)

About weather observations | Map of weather stations | Latest weather observations for WA | Other Formats
Station Details ID: 005017 Name: ONSLOW AIRPORT Lat: -21.67 Lon: 115.11 Height: 10.5 m
Data from the previous 72 hours. | See also: Recent months at Onslow Airport
Date/Time
WST
Temp
°C
App
Temp
°C
Dew
Point
°C
Rel
Hum
%
Delta-T
°C
Wind Press
QNH
hPa
Press
MSL
hPa
Rain since
9am
mm
Dir  Spd
km/h
Gust
km/h
Spd
kts
Gust
kts
07/05:30am 22.8 25.9 21.1 90 1.1 WNW 6 7 3 4 1010.2 1010.1 0.0
07/05:00am 23.0 26.2 21.3 90 1.1 WNW 6 7 3 4 1009.8 1009.7 0.0
07/04:30am 23.0 25.7 21.3 90 1.1 WNW 9 11 5 6 1009.6 1009.5 0.0
07/04:00am 22.9 25.4 21.0 89 1.2 WNW 9 11 5 6 1009.6 1009.5 0.0
07/03:30am 23.0 25.4 20.9 88 1.4 NW 9 11 5 6 1009.3 1009.2 0.0
07/03:00am 23.7 26.4 21.4 87 1.5 NW 9 13 5 7 1009.2 1009.1 0.0
07/02:30am 23.9 26.1 21.8 88 1.4 NNW 13 17 7 9 1009.2 1009.1 0.0
07/02:00am 23.9 26.3 21.6 87 1.5 NNW 11 13 6 7 1009.4 1009.3 0.0
07/01:30am 24.1 26.5 21.6 86 1.7 NW 11 15 6 8 1009.6 1009.5 0.0
07/01:00am 24.2 25.7 21.3 84 1.9 N 15 19 8 10 1009.6 1009.5 0.0
07/12:30am 24.7 25.4 21.6 83 2.1 N 20 24 11 13 1009.9 1009.8 0.0
07/12:00am 24.1 25.9 21.2 84 1.9 N 13 15 7 8 1010.2 1010.1 0.0
 
Date/Time
WST
Temp
°C
App
Temp
°C
Dew
Point
°C
Rel
Hum
%
Delta-T
°C
Wind Press
QNH
hPa
Press
MSL
hPa
Rain since
9am
mm
Dir  Spd
km/h
Gust
km/h
Spd
kts
Gust
kts
06/11:30pm 24.2 25.9 20.9 82 2.2 N 13 17 7 9 1010.5 1010.4 0.0
06/11:00pm 24.5 26.6 21.0 81 2.3 N 11 15 6 8 1010.7 1010.6 0.0
06/10:30pm 24.4 25.9 20.5 79 2.5 N 13 15 7 8 1010.8 1010.7 0.0
06/10:00pm 24.6 26.2 20.7 79 2.6 N 13 17 7 9 1010.8 1010.7 0.0
06/09:30pm 24.4 26.2 20.3 78 2.7 N 11 13 6 7 1010.3 1010.2 0.0
06/09:00pm 24.9 26.8 20.6 77 2.8 NNW 11 13 6 7 1010.1 1010.0 0.0
06/08:30pm 25.2 26.3 20.5 75 3.1 N 15 19 8 10 1010.1 1010.0 0.0
06/08:00pm 25.4 26.3 20.0 72 3.5 N 15 20 8 11 1009.8 1009.7 0.0
06/07:30pm 25.7 26.5 19.8 70 3.8 NNW 15 17 8 9 1009.2 1009.1 0.0
06/07:00pm 26.0 26.2 19.4 67 4.3 NW 17 22 9 12 1008.2 1008.1 0.0
06/06:30pm 26.8 26.4 19.4 64 4.8 WNW 20 24 11 13 1007.8 1007.7 0.0
06/06:00pm 27.4 26.6 20.0 64 4.8 WNW 24 30 13 16 1007.2 1007.1 0.0
06/05:30pm 27.6 26.1 20.2 64 4.8 WNW 28 32 15 17 1006.8 1006.7 0.0
06/05:00pm 28.1 26.4 19.9 61 5.4 WNW 28 37 15 20 1006.7 1006.6 0.0
06/04:30pm 28.7 26.4 20.2 60 5.6 WNW 32 39 17 21 1006.7 1006.6 0.0
06/04:00pm 29.1 26.6 19.7 57 6.2 WNW 32 41 17 22 1006.8 1006.7 0.0
06/03:30pm 30.1 27.6 20.1 55 6.6 WNW 33 41 18 22 1006.9 1006.8 0.0
06/03:00pm 30.3 27.9 20.0 54 6.8 NW 32 43 17 23 1007.2 1007.1 0.0
06/02:30pm 29.9 27.5 19.9 55 6.6 NW 32 37 17 20 1007.4 1007.3 0.0
06/02:00pm 30.1 28.1 19.2 52 7.1 NW 28 35 15 19 1007.6 1007.5 0.0
06/01:30pm 32.5 31.1 18.7 44 9.0 NW 24 32 13 17 1007.9 1007.8 0.0
06/01:00pm 31.9 29.4 18.1 43 8.9 NW 28 32 15 17 1008.3 1008.2 0.0
06/12:30pm 32.7 29.1 14.3 32 11.2 NNW 26 32 14 17 1008.6 1008.5 0.0
06/12:00pm 32.7 30.1 14.8 34 11.0 NNW 22 28 12 15 1008.9 1008.8 0.0
06/11:30am 32.3 30.2 15.3 35 10.5 NNW 20 24 11 13 1009.1 1009.0 0.0
06/11:00am 33.7 32.7 15.7 34 11.3 N 15 28 8 15 1009.2 1009.1 0.0
06/10:30am 36.6 32.8 5.8 15 16.8 ENE 15 20 8 11 1009.4 1009.3 0.0
06/10:00am 34.7 31.7 7.7 19 15.1 SE 13 20 7 11 1009.4 1009.3 0.0
06/09:30am 33.2 30.2 9.3 23 13.6 ESE 15 19 8 10 1009.7 1009.6 0.0
06/09:00am 31.8 29.8 11.6 29 11.8 ESE 13 19 7 10 1009.8 1009.7 0.0
06/08:30am 30.1 27.4 11.6 32 10.7 SSE 17 24 9 13 1009.9 1009.8 0.0
06/08:00am 28.3 25.6 13.0 39 9.0 S 19 22 10 12 1010.1 1010.0 0.0
06/07:30am 26.1 23.7 13.9 47 7.2 S 19 22 10 12 1010.0 1009.9 0.0
06/07:00am 24.5 21.9 13.7 51 6.3 S 20 28 11 15 1009.9 1009.8 0.0
06/06:30am 22.6 20.2 13.7 57 5.2 SSW 19 24 10 13 1009.7 1009.6 0.0
06/06:00am 21.4 18.9 13.6 61 4.5 SSW 19 22 10 12 1009.5 1009.4 0.0
06/05:30am 20.5 19.0 14.2 67 3.7 SW 15 20 8 11 1009.4 1009.3 0.0
06/05:00am 20.7 18.8 14.1 66 3.8 SW 17 20 9 11 1009.2 1009.1 0.0
06/04:30am 20.4 19.3 14.3 68 3.5 SW 13 17 7 9 1009.0 1008.9 0.0
06/04:00am 21.1 19.3 14.5 66 3.9 SW 17 20 9 11 1009.1 1009.0 0.0
06/03:30am 21.4 20.0 14.6 65 4.0 SW 15 20 8 11 1009.2 1009.1 0.0
06/03:00am 21.4 20.4 14.6 65 4.0 SW 13 17 7 9 1009.1 1009.0 0.0
06/02:30am 22.0 20.6 14.6 63 4.4 SW 15 19 8 10 1009.1 1009.0 0.0
06/02:00am 22.2 19.8 14.3 61 4.6 WSW 20 28 11 15 1008.6 1008.5 0.0
06/01:30am 22.0 21.0 14.6 63 4.4 WSW 13 17 7 9 1008.9 1008.8 0.0
06/01:00am 21.9 21.0 14.8 64 4.2 WSW 13 15 7 8 1009.1 1009.0 0.0
06/12:30am 23.0 21.9 15.3 62 4.6 WSW 15 20 8 11 1009.2 1009.1 0.0
06/12:00am 23.4 22.1 15.7 62 4.6 WSW 17 24 9 13 1009.2 1009.1 0.0
 
Date/Time
WST
Temp
°C
App
Temp
°C
Dew
Point
°C
Rel
Hum
%
Delta-T
°C
Wind Press
QNH
hPa
Press
MSL
hPa
Rain since
9am
mm
Dir  Spd
km/h
Gust
km/h
Spd
kts
Gust
kts
05/11:30pm 23.6 22.0 16.4 64 4.4 WSW 20 28 11 15 1009.2 1009.1 0.0
05/11:00pm 24.0 22.2 17.0 65 4.3 WSW 22 28 12 15 1009.2 1009.1 0.0
05/10:30pm 24.4 22.8 17.4 65 4.4 WSW 22 30 12 16 1009.2 1009.1 0.0
05/10:00pm 24.8 23.4 18.0 66 4.3 WSW 22 30 12 16 1009.1 1009.0 0.0
05/09:30pm 25.2 23.4 17.9 64 4.6 WSW 24 33 13 18 1008.8 1008.7 0.0
05/09:00pm 26.0 24.5 17.6 60 5.3 WSW 22 35 12 19 1008.5 1008.4 0.0
05/08:30pm 26.6 25.0 17.4 57 5.8 WSW 22 32 12 17 1008.3 1008.2 0.0
05/08:00pm 27.1 24.9 17.0 54 6.3 WSW 24 33 13 18 1008.0 1007.9 0.0
05/07:30pm 26.4 26.2 21.2 73 3.4 W 24 32 13 17 1007.6 1007.5 0.0
05/07:00pm 26.8 25.4 20.4 68 4.2 WNW 28 35 15 19 1007.3 1007.2 0.0
05/06:30pm 27.5 25.2 19.3 61 5.3 WNW 30 39 16 21 1007.1 1007.0 0.0
05/06:00pm 28.4 25.6 19.1 57 6.0 WNW 32 39 17 21 1006.8 1006.7 0.0
05/05:30pm 28.3 26.1 19.5 59 5.7 WNW 30 37 16 20 1006.5 1006.4 0.0
05/05:00pm 28.2 25.4 19.4 59 5.7 WNW 33 43 18 23 1006.4 1006.3 0.0
05/04:30pm 29.1 25.1 18.5 52 6.8 WNW 37 46 20 25 1006.1 1006.0 0.0
05/04:00pm 29.8 25.5 18.6 51 7.2 WNW 39 50 21 27 1006.0 1005.9 0.0
05/03:30pm 30.5 25.5 17.9 47 8.1 WNW 41 52 22 28 1006.2 1006.1 0.0
05/03:00pm 32.1 27.9 17.2 41 9.5 WNW 35 46 19 25 1006.5 1006.4 0.0
05/02:30pm 31.5 26.8 17.8 44 8.8 WNW 39 48 21 26 1006.7 1006.6 0.0
05/02:00pm 31.4 27.2 18.0 44 8.6 WNW 37 46 20 25 1007.0 1006.9 0.0
05/01:30pm 30.8 27.0 18.2 47 8.1 WNW 35 43 19 23 1007.4 1007.3 0.0
05/01:00pm 31.6 28.2 18.2 44 8.7 WNW 33 41 18 22 1007.6 1007.5 0.0
05/12:30pm 32.6 29.9 17.6 40 9.6 WNW 28 35 15 19 1007.9 1007.8 0.0
05/12:00pm 33.4 33.2 16.7 36 10.6 SSW 13 28 7 15 1008.4 1008.3 0.0
05/11:30am 34.5 31.4 9.0 21 14.5 S 15 20 8 11 1008.9 1008.8 0.0
05/11:00am 33.2 29.6 9.9 24 13.4 S 19 30 10 16 1009.3 1009.2 0.0
05/10:30am 32.7 29.1 10.7 26 12.7 SSW 20 33 11 18 1009.5 1009.4 0.0
05/10:00am 30.4 25.8 10.9 30 11.2 SSW 26 33 14 18 1009.7 1009.6 0.0
05/09:30am 29.6 25.3 12.1 34 10.2 SSW 26 33 14 18 1009.8 1009.7 0.0
05/09:00am 28.3 24.4 12.2 37 9.4 SSW 24 32 13 17 1009.9 1009.8 0.0
05/08:30am 27.1 22.9 12.3 39 8.6 SSW 26 35 14 19 1010.0 1009.9 0.0
05/08:00am 25.4 21.0 12.9 45 7.3 SSW 28 33 15 18 1010.1 1010.0 0.0
05/07:30am 24.4 20.0 13.0 49 6.6 SSW 28 35 15 19 1010.1 1010.0 0.0
05/07:00am 23.3 19.4 13.2 53 5.8 SSW 26 33 14 18 1010.0 1009.9 0.0
05/06:30am 22.3 19.9 14.4 61 4.6 SSW 20 28 11 15 1009.7 1009.6 0.0
05/06:00am 21.3 19.0 14.7 66 3.9 SSW 20 26 11 14 1009.8 1009.7 0.0
05/05:30am 20.7 18.5 14.8 69 3.5 SSW 20 28 11 15 1009.3 1009.2 0.0
05/05:00am 20.6 18.5 14.7 69 3.5 SSW 19 28 10 15 1009.1 1009.0 0.0
05/04:30am 20.8 17.7 14.5 67 3.7 SSW 24 28 13 15 1008.9 1008.8 0.0
05/04:00am 21.0 18.3 14.6 67 3.8 SSW 22 28 12 15 1008.7 1008.6 0.0
05/03:30am 21.4 18.1 15.0 67 3.8 SSW 26 35 14 19 1008.8 1008.7 0.0
05/03:00am 21.5 18.2 15.1 67 3.8 SW 26 35 14 19 1008.4 1008.3 0.0
05/02:30am 21.7 18.7 15.8 69 3.5 SW 26 35 14 19 1008.5 1008.4 0.0
05/02:00am 22.1 19.1 15.9 68 3.7 SW 26 33 14 18 1008.8 1008.7 0.0
05/01:30am 22.2 19.1 16.5 70 3.5 SW 28 35 15 19 1008.6 1008.5 0.0
05/01:00am 22.5 19.6 17.0 71 3.4 SW 28 37 15 20 1008.4 1008.3 0.0
05/12:30am 23.0 19.2 17.2 70 3.6 SW 33 41 18 22 1008.6 1008.5 0.0
05/12:00am 23.1 20.2 17.1 69 3.7 SW 28 37 15 20 1008.9 1008.8 0.0
 
Date/Time
WST
Temp
°C
App
Temp
°C
Dew
Point
°C
Rel
Hum
%
Delta-T
°C
Wind Press
QNH
hPa
Press
MSL
hPa
Rain since
9am
mm
Dir  Spd
km/h
Gust
km/h
Spd
kts
Gust
kts
04/11:30pm 23.2 20.5 16.7 67 4.0 SW 26 33 14 18 1009.0 1008.9 0.0
04/11:00pm 23.4 22.0 16.9 67 4.0 WSW 20 26 11 14 1009.1 1009.0 0.0
04/10:30pm 23.5 21.9 16.5 65 4.3 WSW 20 28 11 15 1009.3 1009.2 0.0
04/10:00pm 23.9 22.4 16.7 64 4.4 WSW 20 28 11 15 1009.1 1009.0 0.0
04/09:30pm 24.9 22.8 16.1 58 5.4 WSW 22 33 12 18 1008.9 1008.8 0.0
04/09:00pm 25.0 22.9 15.3 55 5.9 WSW 20 28 11 15 1008.8 1008.7 0.0
04/08:30pm 25.5 24.1 16.9 59 5.3 W 20 26 11 14 1008.7 1008.6 0.0
04/08:00pm 25.6 25.3 21.1 76 3.0 W 24 32 13 17 1008.4 1008.3 0.0
04/07:30pm 25.7 24.5 20.0 71 3.7 W 26 33 14 18 1008.0 1007.9 0.0
04/07:00pm 25.6 23.8 19.5 69 3.9 W 28 39 15 21 1007.7 1007.6 0.0
04/06:30pm 26.2 23.4 19.1 65 4.6 W 32 39 17 21 1007.6 1007.5 0.0
04/06:00pm 26.9 24.1 19.0 62 5.1 WNW 32 37 17 20 1007.3 1007.2 0.0
04/05:30pm 27.5 24.4 18.5 58 5.8 WNW 32 41 17 22 1007.0 1006.9 0.0
04/05:00pm 27.7 24.6 18.4 57 6.0 WNW 32 39 17 21 1006.7 1006.6 0.0
04/04:30pm 28.4 25.0 18.2 54 6.5 WNW 33 39 18 21 1006.7 1006.6 0.0
04/04:00pm 28.9 25.6 18.4 53 6.7 WNW 33 39 18 21 1006.6 1006.5 0.0
04/03:30pm 29.1 23.7 12.9 37 9.6 WNW 33 43 18 23 1007.0 1006.9 0.0
04/03:00pm 29.2 23.9 14.2 40 9.1 WNW 35 46 19 25 1007.1 1007.0 0.0
04/02:30pm 28.8 23.9 17.3 49 7.2 WNW 39 48 21 26 1007.4 1007.3 0.0
04/02:00pm 29.2 25.1 18.3 51 7.0 WNW 37 44 20 24 1007.7 1007.6 0.0
04/01:30pm 29.3 25.3 17.5 49 7.5 WNW 35 43 19 23 1007.8 1007.7 0.0
04/01:00pm 29.2 25.4 18.0 51 7.2 WNW 35 41 19 22 1008.0 1007.9 0.0
04/12:30pm 30.1 27.0 18.5 49 7.5 WNW 32 39 17 21 1008.2 1008.1 0.0
04/12:00pm 29.5 26.6 17.0 47 7.9 NW 28 33 15 18 1008.4 1008.3 0.0
04/11:30am 29.3 27.1 16.8 47 7.8 NW 24 32 13 17 1008.7 1008.6 0.0
04/11:00am 30.0 27.6 15.3 41 9.0 NW 22 30 12 16 1008.9 1008.8 0.0
04/10:30am 30.3 29.0 11.3 31 11.0 SSW 9 17 5 9 1009.3 1009.2 0.0
04/10:00am 28.8 27.0 12.2 35 9.7 SW 13 17 7 9 1009.4 1009.3 0.0
04/09:30am 27.9 26.3 12.7 39 8.9 SSW 13 22 7 12 1009.6 1009.5 0.0
04/09:00am 26.5 24.3 13.3 44 7.8 SSW 17 22 9 12 1009.6 1009.5 0.0
04/08:30am 25.0 21.4 13.2 48 6.9 SSW 24 30 13 16 1009.5 1009.4 0.0
04/08:00am 23.8 20.4 13.6 52 6.0 SSW 24 30 13 16 1009.5 1009.4 0.0
04/07:30am 22.2 17.7 13.8 59 4.9 SSW 30 35 16 19 1009.4 1009.3 0.0
04/07:00am 21.1 16.8 14.3 65 4.0 SSW 30 37 16 20 1009.3 1009.2 0.0
04/06:30am 20.2 16.4 14.6 70 3.3 SW 28 35 15 19 1009.5 1009.4 0.0
04/06:00am 19.5 15.9 14.3 72 3.0 SW 26 33 14 18 1009.6 1009.5 0.0

Other Formats:

Comma delimited format used in spreadsheet applications
http://www.bom.gov.au/fwo/IDW60801/IDW60801.95305.axf

JavaScript Object Notation format (JSON) in row-major order
http://www.bom.gov.au/fwo/IDW60801/IDW60801.95305.json